Home > Products > Valid Products > TAF

000
FTUS43 KDTX 221100
TAFMBS
TAF
KMBS 221134Z 2212/2312 32007KT P6SM BKN040
      TEMPO 2212/2216 SCT040
     FM221600 28008KT P6SM SKC
     FM230000 26004KT P6SM SKC=



000
FTUS43 KDTX 221100
TAFDTW
TAF
KDTW 221134Z 2212/2318 32008KT P6SM BKN035
      TEMPO 2213/2217 SCT035
     FM221700 30007KT P6SM SKC
     FM230000 26004KT P6SM SKC=



000
FTUS43 KDTX 221100
TAFDET
TAF
KDET 221134Z 2212/2312 32008KT P6SM BKN035
      TEMPO 2213/2217 SCT035
     FM221700 30007KT P6SM SKC
     FM230000 26004KT P6SM SKC=



000
FTUS43 KDTX 221100
TAFFNT
TAF
KFNT 221134Z 2212/2312 32008KT P6SM BKN035
      TEMPO 2212/2216 SCT035
     FM221600 30008KT P6SM SKC
     FM230000 26004KT P6SM SKC=



000
FTUS43 KDTX 220800 AAA
TAFMBS
TAF AMD
KMBS 220802Z 2208/2306 30006KT P6SM OVC035
     FM221000 32007KT P6SM BKN040
      TEMPO 2213/2216 SCT035
     FM221600 28008KT P6SM SKC
     FM230000 26004KT P6SM SKC=



000
FTUS43 KDTX 220800 AAA
TAFDTW
TAF AMD
KDTW 220801Z 2208/2312 33011KT P6SM SCT025 OVC040
     FM221000 32008KT P6SM BKN045
     FM221700 30007KT P6SM SKC
     FM230000 26004KT P6SM SKC=



000
FTUS43 KDTX 220800 AAA
TAFDET
TAF AMD
KDET 220801Z 2208/2306 33011KT P6SM OVC040
     FM221000 32008KT P6SM BKN045
     FM221700 30007KT P6SM SKC
     FM230000 26004KT P6SM SKC=



000
FTUS43 KDTX 220500
TAFMBS
TAF
KMBS 220530Z 2206/2306 33012G20KT P6SM OVC035
     FM221000 32007KT P6SM BKN035
      TEMPO 2213/2216 SCT035
     FM221600 28008KT P6SM SKC
     FM230000 26004KT P6SM SKC=



000
FTUS43 KDTX 220500
TAFDTW
TAF
KDTW 220530Z 2206/2312 33011G19KT P6SM SCT025 OVC035
      TEMPO 2206/2210 BKN025
     FM221000 32008KT P6SM BKN035
     FM221700 30007KT P6SM SKC
     FM230000 26004KT P6SM SKC=



000
FTUS43 KDTX 220500
TAFFNT
TAF
KFNT 220530Z 2206/2306 33011KT P6SM OVC035
     FM221000 32008KT P6SM BKN035
     FM221600 30008KT P6SM SKC
     FM230000 26004KT P6SM SKC=



000
FTUS43 KDTX 220500
TAFDET
TAF
KDET 220530Z 2206/2306 33011G19KT P6SM OVC035
     FM221000 32008KT P6SM BKN035
     FM221700 30007KT P6SM SKC
     FM230000 26004KT P6SM SKC=



000
FTUS43 KDTX 220200 AAA
TAFDTW
TAF AMD
KDTW 220213Z 2202/2306 33011G19KT P6SM OVC025
     FM221000 32008KT P6SM BKN030
     FM221700 30007KT P6SM SKC
     FM230000 26004KT P6SM SKC=



000
FTUS43 KDTX 212300
TAFFNT
TAF
KFNT 212320Z 2200/2224 33012G20KT P6SM OVC022
     FM221000 32008KT P6SM BKN028
     FM221600 30008KT P6SM SKC=



000
FTUS43 KDTX 212300
TAFDTW
TAF
KDTW 212320Z 2200/2306 34013G23KT P6SM -SHRA SCT016 BKN026 OVC040
     FM220200 33011G19KT P6SM OVC022
     FM221000 32008KT P6SM BKN030
     FM221700 30007KT P6SM SKC
     FM230000 26004KT P6SM SKC=



000
FTUS43 KDTX 212300
TAFMBS
TAF
KMBS 212320Z 2200/2224 33012G20KT P6SM OVC022
     FM221000 32007KT P6SM BKN030
      TEMPO 2211/2215 SCT030
     FM221500 28008KT P6SM SKC=



000
FTUS43 KDTX 212300
TAFDET
TAF
KDET 212320Z 2200/2224 34012G21KT P6SM -SHRA SCT016 BKN026 OVC040
     FM220200 33011G19KT P6SM OVC022
     FM221000 32008KT P6SM BKN030
     FM221700 30007KT P6SM SKC=



000
FTUS43 KDTX 212000 AAA
TAFDTW
TAF AMD
KDTW 212010Z 2120/2224 26015G25KT P6SM -SHRA SCT015 BKN025 OVC050
     FM212100 35015G26KT 6SM SHRA BKN015 OVC025
     FM220000 33012KT P6SM BKN020
     FM221400 33011KT P6SM BKN030
     FM221800 33009KT P6SM SCT035=



000
FTUS43 KDTX 212000 AAA
TAFDET
TAF AMD
KDET 212010Z 2120/2218 26015G25KT P6SM -SHRA SCT015 BKN025 OVC050
     FM212100 35015G26KT 6SM SHRA BKN015 OVC025
     FM220000 33012KT P6SM BKN020
     FM221400 33011KT P6SM BKN030=



000
FTUS43 KDTX 211900 AAA
TAFFNT
TAF AMD
KFNT 211927Z 2119/2218 31014KT P6SM -SHRA SCT015 OVC025
      TEMPO 2119/2121 34015G26KT 2SM TSRA BKN015CB OVC025
     FM220000 34011KT P6SM BKN015 OVC025
     FM221400 33012KT P6SM BKN030=



000
FTUS43 KDTX 211700
TAFFNT
TAF
KFNT 211729Z 2118/2218 31014KT P6SM -SHRA SCT015 OVC025
      TEMPO 2118/2122 4SM -SHRA SCT010 OVC015
     FM220000 34011KT P6SM BKN015 OVC025
     FM221400 33012KT P6SM BKN030=



000
FTUS43 KDTX 211700
TAFDET
TAF
KDET 211729Z 2118/2218 26015G25KT P6SM SCT025 BKN040
      TEMPO 2118/2122 5SM -SHRA BR BKN025
     FM212200 34013G23KT P6SM OVC025
     FM220000 33012KT P6SM BKN020
     FM221400 33011KT P6SM BKN030=



000
FTUS43 KDTX 211700
TAFMBS
TAF
KMBS 211729Z 2118/2218 32014KT 5SM -SHRA OVC015
     FM212200 34014G22KT P6SM OVC020
     FM220000 33011KT P6SM BKN025
     FM221500 33006KT P6SM SCT025=



000
FTUS43 KDTX 211700
TAFDTW
TAF
KDTW 211729Z 2118/2224 26015G25KT P6SM SCT025 BKN040
      TEMPO 2118/2122 5SM -SHRA BR BKN025
     FM212200 34013G23KT P6SM OVC025
     FM220000 33012KT P6SM BKN020
     FM221400 33011KT P6SM BKN030
     FM221800 33009KT P6SM SCT035=



000
FTUS43 KDTX 211400 AAB
TAFDET
TAF AMD
KDET 211412Z 2114/2212 26015G25KT P6SM SCT025 BKN040
      TEMPO 2117/2119 6SM -SHRA BR BKN025
     FM211900 29012G18KT 5SM -SHRA BKN020
     FM212200 35013G23KT P6SM BKN025
     FM220000 33012KT P6SM BKN020=



000
FTUS43 KDTX 211400 AAA
TAFDTW
TAF AMD
KDTW 211411Z 2114/2218 26015G25KT P6SM SCT025 BKN040
      TEMPO 2117/2119 5SM -SHRA BR BKN025
     FM211900 29012G18KT 5SM -SHRA BKN020
     FM212200 35013G23KT P6SM BKN025
     FM220000 33012KT P6SM BKN020=



000
FTUS43 KDTX 211400 AAA
TAFFNT
TAF AMD
KFNT 211409Z 2114/2212 28015KT P6SM OVC030
      TEMPO 2116/2117 5SM -SHRA BR BKN020
     FM211700 34014KT 5SM -SHRA BKN015
     FM212200 34014G22KT P6SM BKN020
     FM220000 33011KT P6SM BKN025=



000
FTUS43 KDTX 211100 AAA
TAFDET
TAF AMD
KDET 211144Z 2112/2212 28010G19KT P6SM SCT008 BKN040
     FM211500 32012KT P6SM BKN025
      TEMPO 2115/2119 5SM -SHRA BR BKN020
     FM211900 29012G18KT 5SM -SHRA BKN020
     FM212200 35013G23KT P6SM BKN025
     FM220000 33012KT P6SM BKN020=



000
FTUS43 KDTX 211100 CCA
TAFDTW
TAF COR
KDTW 211143Z 2112/2218 25010G20KT P6SM SCT008 BKN040
     FM211500 32012KT P6SM BKN025
      TEMPO 2115/2119 5SM -SHRA BR BKN020
     FM211900 29012G18KT 5SM -SHRA BKN020
     FM212200 35013G23KT P6SM BKN025
     FM220000 33012KT P6SM BKN020=



000
FTUS43 KDTX 211100
TAFDTW
TAF
KDTW 211140Z 2112/2218 20009KT P6SM SCT008 BKN040
     FM211500 32012KT P6SM BKN025
      TEMPO 2115/2119 5SM -SHRA BR BKN020
     FM211900 29012G18KT 5SM -SHRA BKN020
     FM212200 35013G23KT P6SM BKN025
     FM220000 33012KT P6SM BKN020=



000
FTUS43 KDTX 211100
TAFDET
TAF
KDET 211140Z 2112/2212 20009KT P6SM SCT008 BKN040
     FM211500 32012KT P6SM BKN025
      TEMPO 2115/2119 5SM -SHRA BR BKN020
     FM211900 29012G18KT 5SM -SHRA BKN020
     FM212200 35013G23KT P6SM BKN025
     FM220000 33012KT P6SM BKN020=



000
FTUS43 KDTX 211100
TAFFNT
TAF
KFNT 211140Z 2112/2212 28007KT P6SM BKN015
     FM211400 32012KT P6SM BKN025
      TEMPO 2114/2117 5SM -SHRA BR BKN020
     FM211700 34014KT 5SM -SHRA BKN015
     FM212200 34014G22KT P6SM BKN020
     FM220000 33011KT P6SM BKN025=



000
FTUS43 KDTX 211100
TAFMBS
TAF
KMBS 211140Z 2112/2212 28007KT P6SM BKN015
     FM211500 34014KT 5SM -SHRA BKN015
     FM212100 34014G22KT P6SM BKN020
     FM220000 33011KT P6SM BKN025=



000
FTUS43 KDTX 210900 AAC
TAFDTW
TAF AMD
KDTW 210958Z 2110/2212 20009KT 6SM BR BKN008 BKN100
      TEMPO 2110/2111 3SM TSRA BKN030CB
     FM211500 32012KT P6SM BKN025
      TEMPO 2115/2119 5SM -SHRA BR BKN020
     FM211900 29012G18KT 5SM -SHRA BKN020
     FM212200 35013G23KT P6SM BKN025
     FM220000 33012KT P6SM BKN020=



000
FTUS43 KDTX 210900 AAB
TAFFNT
TAF AMD
KFNT 210941Z 2110/2206 22006KT 4SM -RA BR SCT010 BKN040
     FM211000 25007KT P6SM BKN015
     FM211400 32012KT P6SM BKN025
      TEMPO 2114/2117 5SM -SHRA BR BKN020
     FM211700 34014KT 5SM -SHRA BKN015
     FM212200 34014G22KT P6SM BKN020
     FM220000 33011KT P6SM BKN025=



000
FTUS43 KDTX 210900 AAC
TAFMBS
TAF AMD
KMBS 210941Z 2110/2206 22006KT P6SM BKN015
     FM211500 34014KT 5SM -SHRA BKN015
     FM212100 34014G22KT P6SM BKN020
     FM220000 33011KT P6SM BKN025=



000
FTUS43 KDTX 210800 AAB
TAFDTW
TAF AMD
KDTW 210848Z 2109/2212 20009KT 6SM BR BKN008 BKN100
      TEMPO 2109/2111 3SM TSRA BKN030CB
     FM211400 27011KT P6SM BKN018 BKN080
     FM211800 32014KT 5SM -SHRA BR BKN022 BKN060
      TEMPO 2118/2121 3SM TSRA OVC024CB
     FM212100 35013G22KT P6SM BKN035 BKN050
     FM220000 35006KT P6SM BKN024=



000
FTUS43 KDTX 210700 AAA
TAFDET
TAF AMD
KDET 210744Z 2108/2206 20006KT 6SM BR BKN008 BKN100
      TEMPO 2110/2112 3SM TSRA BKN030CB
     FM211400 27008KT P6SM BKN018 BKN080
     FM211600 32006KT P6SM BKN022 BKN060
      TEMPO 2116/2120 3SM TSRA OVC024CB
     FM212100 34012KT P6SM BKN035 BKN050
     FM220300 35006KT P6SM BKN024=



000
FTUS43 KDTX 210700 AAA
TAFDTW
TAF AMD
KDTW 210744Z 2108/2212 20006KT 6SM BR BKN008 BKN100
      TEMPO 2109/2111 3SM TSRA BKN030CB
     FM211400 27008KT P6SM BKN018 BKN080
     FM211600 32006KT P6SM BKN022 BKN060
      TEMPO 2116/2120 3SM TSRA OVC024CB
     FM212100 34012KT P6SM BKN035 BKN050
     FM220300 35006KT P6SM BKN024=



000
FTUS43 KDTX 210700 AAB
TAFMBS
TAF AMD
KMBS 210741Z 2108/2206 22007KT P6SM BKN012 OVC045
      TEMPO 2108/2112 23012G20KT 3SM TSRA BKN030CB
     FM211300 36014KT P6SM BKN035 BKN060
     FM220100 36010KT P6SM BKN028=



000
FTUS43 KDTX 210600 AAA
TAFMBS
TAF AMD
KMBS 210620Z 2106/2206 22007KT P6SM BKN012 OVC045
      TEMPO 2109/2112 23012G20KT 3SM TSRA BKN030CB
     FM211300 36014KT P6SM BKN035 BKN060
     FM220100 36010KT P6SM BKN028=



000
FTUS43 KDTX 210600 AAA
TAFFNT
TAF AMD
KFNT 210620Z 2106/2206 22007KT P6SM BKN008 BKN100
      TEMPO 2108/2111 23012G20KT 3SM TSRA BKN030CB
     FM211400 32010KT P6SM BKN014 BKN060
      TEMPO 2114/2117 3SM TSRA OVC022CB
     FM211700 34012KT P6SM BKN030 OVC050
     FM220100 36010KT P6SM BKN024=



000
FTUS43 KDTX 210500
TAFFNT
TAF
KFNT 210520Z 2106/2206 22007KT P6SM BKN008 BKN100
     FM211400 32010KT P6SM BKN014 BKN060
      TEMPO 2114/2117 3SM TSRA OVC022CB
     FM211700 34012KT P6SM BKN030 OVC050
     FM220100 36010KT P6SM BKN024=



000
FTUS43 KDTX 210500
TAFMBS
TAF
KMBS 210520Z 2106/2206 22007KT P6SM BKN012 OVC045
      TEMPO 2109/2113 3SM TSRA BKN008 OVC022CB
     FM211300 36014KT P6SM BKN035 BKN060
     FM220100 36010KT P6SM BKN028=



000
FTUS43 KDTX 210500
TAFDTW
TAF
KDTW 210520Z 2106/2212 20006KT 6SM BR BKN008 BKN100
     FM211400 27008KT P6SM BKN018 BKN080
     FM211600 32006KT P6SM BKN022 BKN060
      TEMPO 2116/2120 3SM TSRA OVC024CB
     FM212100 34012KT P6SM BKN035 BKN050
     FM220300 35006KT P6SM BKN024=



000
FTUS43 KDTX 210500
TAFDET
TAF
KDET 210520Z 2106/2206 20006KT 6SM BR BKN008 BKN100
     FM211400 27008KT P6SM BKN018 BKN080
     FM211600 32006KT P6SM BKN022 BKN060
      TEMPO 2116/2120 3SM TSRA OVC024CB
     FM212100 34012KT P6SM BKN035 BKN050
     FM220300 35006KT P6SM BKN024=



000
FTUS43 KDTX 210200 AAB
TAFDTW
TAF AMD
KDTW 210206Z 2102/2206 20006KT P6SM BKN035 OVC060
     FM210800 22005KT 4SM BR BKN010 OVC030
     FM211400 28009KT P6SM BKN020 OVC035
     FM211700 32012KT P6SM BKN035 BKN060 PROB30 2117/2121 3SM TSRA
      OVC025CB
     FM220000 35012KT P6SM BKN050=



000
FTUS43 KDTX 210000 AAA
TAFDET
TAF AMD
KDET 210045Z 2101/2124 22014KT 6SM -SHRA BKN045 OVC080
     FM210300 22006KT P6SM BKN035 OVC060
     FM210800 22005KT 4SM BR BKN010 OVC030
     FM211400 28009KT P6SM BKN020 OVC035
     FM211700 32012KT P6SM BKN035 BKN060 PROB30 2117/2121 3SM TSRA
      OVC025CB=



000
FTUS43 KDTX 210000 AAA
TAFDTW
TAF AMD
KDTW 210045Z 2101/2206 22014KT 6SM -SHRA BKN045 OVC080
     FM210300 22006KT P6SM BKN035 OVC060
     FM210800 22005KT 4SM BR BKN010 OVC030
     FM211400 28009KT P6SM BKN020 OVC035
     FM211700 32012KT P6SM BKN035 BKN060 PROB30 2117/2121 3SM TSRA
      OVC025CB
     FM220000 35012KT P6SM BKN050=



000
FTUS43 KDTX 202300 CCA
TAFDTW
TAF COR
KDTW 202321Z 2100/2206 22014KT 6SM -SHRA BKN045 OVC080
      TEMPO 2100/2101 24026G42KT 3SM +TSRA BKN030CB OVC050
     FM210300 22006KT P6SM BKN035 OVC060
     FM210800 22005KT 4SM BR BKN010 OVC030
     FM211400 28009KT P6SM BKN020 OVC035
     FM211700 32012KT P6SM BKN035 BKN060 PROB30 2117/2121 3SM TSRA
      OVC025CB
     FM220000 35012KT P6SM BKN050=



000
FTUS43 KDTX 202300
TAFDTW
TAF
KDTW 202320Z 2100/2206 22014KT 6SM -SHRA BKN045 OVC080
      TEMPO 2100/2101 VRB20G30KT 3SM +TSRA BKN030CB OVC050
     FM210300 22006KT P6SM BKN035 OVC060
     FM210800 22005KT 4SM BR BKN010 OVC030
     FM211400 28009KT P6SM BKN020 OVC035
     FM211700 32012KT P6SM BKN035 BKN060 PROB30 2117/2121 3SM TSRA
      OVC025CB
     FM220000 35012KT P6SM BKN050=



000
FTUS43 KDTX 202300
TAFFNT
TAF
KFNT 202320Z 2100/2124 22012KT 5SM SHRA BKN035 BKN100
      TEMPO 2100/2101 VRB15G26KT 2SM +TSRA OVC025CB
     FM210100 24008KT P6SM BKN035 OVC050
     FM210800 22005KT 4SM BR BKN008 OVC030
     FM211400 30010KT 5SM BR BKN015 OVC030
     FM211700 32012KT P6SM -SHRA BKN028 BKN060 PROB30 2117/2119 3SM
      TSRA OVC025CB=



000
FTUS43 KDTX 202300
TAFDET
TAF
KDET 202320Z 2100/2124 22014KT 6SM -SHRA BKN045 OVC080
      TEMPO 2100/2101 3SM +TSRA BKN030CB OVC050
     FM210300 22006KT P6SM BKN035 OVC060
     FM210800 22005KT 4SM BR BKN010 OVC030
     FM211400 28009KT P6SM BKN020 OVC035
     FM211700 32012KT P6SM BKN035 BKN060 PROB30 2117/2121 3SM TSRA
      OVC025CB=



000
FTUS43 KDTX 202300
TAFMBS
TAF
KMBS 202320Z 2100/2124 24008KT P6SM BKN035 OVC050
     FM210700 22005KT 4SM BR BKN010 OVC030
     FM211200 30010KT 5SM -SHRA BR BKN015 OVC030
     FM211600 02014KT P6SM -SHRA BKN025 BKN050 PROB30 2116/2118 3SM
      TSRA OVC025CB=



000
FTUS43 KDTX 202200 AAA
TAFFNT
TAF AMD
KFNT 202214Z 2022/2118 24015KT 5SM SHRA BKN035 BKN100
      TEMPO 2022/2101 VRB15G28KT 5SM TSRA BKN028CB OVC035
     FM210100 24008KT P6SM BKN030 OVC050
     FM210700 22005KT 4SM -SHRA BR BKN010 OVC030
     FM211400 30010KT 5SM BR BKN015 OVC030=



000
FTUS43 KDTX 202000 AAA
TAFDET
TAF AMD
KDET 202053Z 2021/2118 22016G24KT P6SM -SHRA SCT040 SCT120 BKN250
     FM202300 24012KT 5SM SHRA BKN035 BKN100
      TEMPO 2023/2101 3SM TSRA BKN025CB OVC035
     FM210300 24008KT P6SM BKN030 OVC050
     FM210800 22005KT 5SM -SHRA BR BKN012 OVC030
     FM211400 28009KT P6SM BKN020 OVC035=



000
FTUS43 KDTX 202000 AAA
TAFMBS
TAF AMD
KMBS 202050Z 2021/2118 23015G25KT P6SM SCT040 BKN120 BKN250
     FM202200 24012KT 6SM SHRA BKN035 BKN100
      TEMPO 2022/2024 4SM TSRA BKN028CB OVC035
     FM210100 24008KT P6SM BKN030 OVC050
     FM210700 22005KT 4SM -SHRA BR BKN010 OVC030
     FM211300 30010KT 5SM BR BKN015 OVC030=



000
FTUS43 KDTX 202000 AAA
TAFDTW
TAF AMD
KDTW 202049Z 2021/2124 22016G24KT P6SM -SHRA SCT040 SCT120 BKN250
     FM202300 24012KT 5SM SHRA BKN035 BKN100
      TEMPO 2023/2101 3SM TSRA BKN025CB OVC035
     FM210300 24008KT P6SM BKN030 OVC050
     FM210800 22005KT 4SM -SHRA BR BKN012 OVC030
     FM211400 28009KT 6SM HZ BKN020 OVC035
     FM211800 32012KT P6SM BKN035 OVC060=



000
FTUS43 KDTX 201700
TAFFNT
TAF
KFNT 201720Z 2018/2118 22015G24KT P6SM SCT040 BKN120 BKN250
     FM202000 24012KT 5SM SHRA BKN035 BKN100
      TEMPO 2021/2023 3SM TSRA BKN028CB OVC035
     FM210100 24008KT P6SM BKN030 OVC050
     FM210700 22005KT 4SM -SHRA BR BKN010 OVC030
     FM211400 30010KT 5SM BR BKN015 OVC030=



000
FTUS43 KDTX 201700
TAFDET
TAF
KDET 201720Z 2018/2118 22016G24KT P6SM SCT040 SCT120 BKN250
     FM202200 24012KT 5SM SHRA BKN035 BKN100
      TEMPO 2023/2101 4SM TSRA BKN028CB OVC035
     FM210300 24008KT P6SM BKN030 OVC050
     FM210800 22005KT 5SM -SHRA BR BKN012 OVC030
     FM211400 28009KT P6SM BKN020 OVC035=



000
FTUS43 KDTX 201700
TAFDTW
TAF
KDTW 201720Z 2018/2124 22016G24KT P6SM SCT040 SCT120 BKN250
     FM202200 24012KT 5SM SHRA BKN035 BKN100
      TEMPO 2023/2101 3SM TSRA BKN025CB OVC035
     FM210300 24008KT P6SM BKN030 OVC050
     FM210800 22005KT 4SM -SHRA BR BKN012 OVC030
     FM211400 28009KT 6SM HZ BKN020 OVC035
     FM211800 32012KT P6SM BKN035 OVC060=



000
FTUS43 KDTX 201700
TAFMBS
TAF
KMBS 201720Z 2018/2118 23014G24KT P6SM SCT040 BKN120 BKN250
     FM201900 24012KT 6SM SHRA BKN035 BKN100
      TEMPO 2019/2021 4SM TSRA BKN028CB OVC035
     FM210000 24008KT P6SM BKN030 OVC050
     FM210700 22005KT 4SM -SHRA BR BKN010 OVC030
     FM211300 30010KT 5SM BR BKN015 OVC030=



000
FTUS43 KDTX 201400 AAA
TAFDTW
TAF AMD
KDTW 201436Z 2015/2118 22015G25KT P6SM SCT040 BKN120 BKN250
     FM202300 24012KT 4SM SHRA BKN035 BKN100
     FM210300 24008KT P6SM BKN030 OVC050
     FM210800 22005KT 4SM -SHRA BR BKN012 OVC030=



000
FTUS43 KDTX 201100
TAFMBS
TAF
KMBS 201127Z 2012/2112 21012KT P6SM SCT150 BKN250 WS015/24035KT
      TEMPO 2013/2015 3SM -TSRA OVC050CB
     FM201500 22015G25KT P6SM SCT040 BKN120 OVC250
     FM202000 24012KT 4SM SHRA BKN035 BKN100
      TEMPO 2020/2024 TSRA BKN035CB
     FM210300 24008KT P6SM BKN030 OVC050
     FM210800 22005KT 4SM -SHRA BR BKN012 OVC030=



000
FTUS43 KDTX 201100
TAFDTW
TAF
KDTW 201127Z 2012/2118 21009KT P6SM SCT150 BKN250 WS015/24035KT
     FM201500 22015G25KT P6SM SCT040 BKN120 OVC250
     FM202300 24012KT 4SM SHRA BKN035 BKN100
     FM210300 24008KT P6SM BKN030 OVC050
     FM210800 22005KT 4SM -SHRA BR BKN012 OVC030=



000
FTUS43 KDTX 201100
TAFDET
TAF
KDET 201127Z 2012/2112 22009KT P6SM SCT150 BKN250 WS015/24035KT
     FM201500 22013G20KT P6SM SCT040 BKN120 OVC250
     FM202300 24012KT 4SM SHRA BKN035 BKN100
     FM210300 24008KT P6SM BKN030 OVC050
     FM210800 22005KT 4SM -SHRA BR BKN012 OVC030=



000
FTUS43 KDTX 201100
TAFFNT
TAF
KFNT 201127Z 2012/2112 21009KT P6SM BKN100 OVC250 WS015/24035KT
      TEMPO 2012/2014 3SM -TSRA OVC050CB
     FM201500 23015G25KT P6SM SCT040 BKN120 OVC250
     FM202100 24012KT 4SM SHRA BKN035 BKN100
      TEMPO 2021/2101 TSRA BKN035CB
     FM210300 24008KT P6SM BKN030 OVC050
     FM210800 22005KT 4SM -SHRA BR BKN012 OVC030=



000
FTUS43 KDTX 201000 AAA
TAFFNT
TAF AMD
KFNT 201020Z 2010/2106 21010KT P6SM SCT050 OVC100
      TEMPO 2010/2013 3SM TSRA OVC035CB
     FM201500 23014G25KT P6SM SCT040 BKN120
     FM202100 23012KT 6SM SHRA BKN040 OVC060 PROB30 2021/2024 3SM
      TSRA OVC040CB
     FM210100 24008KT P6SM BKN025 OVC040=



000
FTUS43 KDTX 200800 AAB
TAFDTW
TAF AMD
KDTW 200857Z 2009/2112 20005KT P6SM SCT250
     FM201100 21009KT P6SM SCT150 BKN250
     FM201500 22013G22KT P6SM SCT040 BKN120 OVC250
     FM202300 24012KT 4SM SHRA BKN035 BKN100
     FM210300 24008KT P6SM BKN030 OVC050
     FM210800 22005KT 4SM -SHRA BR BKN012 OVC030=



000
FTUS43 KDTX 200700 AAA
TAFDTW
TAF AMD
KDTW 200724Z 2007/2112 16005KT P6SM SCT250
     FM201100 21009KT P6SM SCT150 BKN250
     FM201500 22013G22KT P6SM SCT040 BKN120 OVC250
     FM202200 24012KT 4SM SHRA BKN035 BKN100
     FM210300 24008KT P6SM BKN030 OVC050
     FM210800 22005KT 4SM -SHRA BR BKN012 OVC030=



000
FTUS43 KDTX 200500
TAFFNT
TAF
KFNT 200520Z 2006/2106 19009KT P6SM SCT150 BKN250
     FM201500 23014G25KT P6SM SCT040 BKN120
     FM202100 23012KT 6SM SHRA BKN040 OVC060 PROB30 2021/2024 3SM
      TSRA OVC040CB
     FM210100 24008KT P6SM BKN025 OVC040=



000
FTUS43 KDTX 200500
TAFDET
TAF
KDET 200520Z 2006/2106 15005KT P6SM BKN250
     FM201100 21009KT P6SM SCT150 BKN250
     FM201500 22013G22KT P6SM BKN120
     FM202200 24012KT 6SM SHRA BKN050 BKN100
     FM210300 24008KT P6SM BKN030 OVC050=



000
FTUS43 KDTX 200500
TAFDTW
TAF
KDTW 200520Z 2006/2112 15005KT P6SM BKN250
     FM201100 21009KT P6SM SCT150 BKN250
     FM201500 22013G22KT P6SM BKN120
     FM202200 24012KT 6SM SHRA BKN050 BKN100
     FM210300 24008KT P6SM BKN030 OVC050
     FM210800 22005KT 4SM -SHRA BR BKN012 OVC030=



000
FTUS43 KDTX 200500
TAFMBS
TAF
KMBS 200520Z 2006/2106 19012KT P6SM SCT120 BKN250
     FM201200 23014G22KT P6SM BKN060 BKN120
     FM201800 23015G26KT 6SM SHRA BKN050 OVC080 PROB30 2019/2022 3SM
      TSRA OVC040CB
     FM202200 24012KT 5SM BR BKN025 OVC040=



000
FTUS43 KDTX 200200 AAA
TAFDTW
TAF AMD
KDTW 200215Z 2002/2106 15005KT P6SM BKN250
     FM201100 21009KT P6SM SCT150 BKN250
     FM201500 22013G21KT P6SM BKN120
     FM202200 23010KT 6SM SHRA BKN050 OVC080
     FM210300 24008KT 6SM BR BKN030 OVC050=



000
FTUS43 KDTX 192300
TAFDTW
TAF
KDTW 192322Z 2000/2106 15005KT P6SM BKN250
     FM201100 21009KT P6SM SCT150 BKN250
     FM201500 22013G21KT P6SM BKN120
     FM202200 23010KT 6SM SHRA BKN050 OVC080
     FM210300 24008KT 6SM BR BKN030 OVC050=



000
FTUS43 KDTX 192300
TAFFNT
TAF
KFNT 192322Z 2000/2024 17006KT P6SM BKN250
     FM200400 21009KT P6SM SCT150 BKN250
     FM201500 23014G25KT P6SM SCT040 BKN120
     FM202100 23012KT 6SM SHRA BKN040 OVC060=



000
FTUS43 KDTX 192300
TAFDET
TAF
KDET 192322Z 2000/2024 16005KT P6SM BKN250
     FM201100 21009KT P6SM SCT150 BKN250
     FM201500 22013G21KT P6SM BKN120
     FM202200 23010KT 6SM SHRA BKN050 OVC080=



000
FTUS43 KDTX 192300
TAFMBS
TAF
KMBS 192322Z 2000/2024 20010KT P6SM BKN250
     FM201200 23014G22KT P6SM BKN060 BKN120
     FM201600 23015G26KT 6SM SHRA BKN050 OVC080
     FM202200 24012KT 5SM BR BKN025 OVC040=



000
FTUS43 KDTX 192000 AAA
TAFDTW
TAF AMD
KDTW 192052Z 1921/2024 12007KT P6SM BKN250
     FM192300 16005KT P6SM SKC
     FM201200 20012KT P6SM SCT100 BKN250
     FM201800 22014KT P6SM BKN100 OVC250=



000
FTUS43 KDTX 191700
TAFMBS
TAF
KMBS 191720Z 1918/2018 17009KT P6SM FEW040 SCT250
     FM192300 18006KT P6SM SKC
     FM201200 22012KT P6SM BKN100 OVC250=



000
FTUS43 KDTX 191700
TAFDTW
TAF
KDTW 191720Z 1918/2024 14007KT P6SM FEW250
     FM192300 16005KT P6SM SKC
     FM201200 20012KT P6SM SCT100 BKN250
     FM201800 22014KT P6SM BKN100 OVC250=



000
FTUS43 KDTX 191700
TAFFNT
TAF
KFNT 191720Z 1918/2018 16008KT P6SM FEW250
     FM192300 17005KT P6SM SKC
     FM201200 21012KT P6SM BKN100 OVC250=



000
FTUS43 KDTX 191700
TAFDET
TAF
KDET 191720Z 1918/2018 14007KT P6SM FEW250
     FM192300 16005KT P6SM SKC
     FM201200 20012KT P6SM SCT100 BKN250=



000
FTUS43 KDTX 191500 AAA
TAFDTW
TAF AMD
KDTW 191505Z 1915/2018 11003KT P6SM FEW070 SCT250
     FM191700 14007KT P6SM SKC
     FM192300 16005KT P6SM SKC=



    US Dept of Commerce
    National Oceanic and Atmospheric Administration
    National Weather Service
    1325 East West Highway
    Silver Spring, MD 20910
    Page Author: NWS Internet Services Team
Disclaimer
Information Quality
Credits
Glossary
Privacy Policy
Freedom of Information Act (FOIA)
About Us
Career Opportunities